sensor_id;sensor_type;location;lat;lon;timestamp;pressure;altitude;pressure_sealevel;temperature;humidity
75886;BME280;64561;44.018;10.144;2024-03-06T00:02:07;101243.09;;;12.32;76.80
75886;BME280;64561;44.018;10.144;2024-03-06T00:04:35;101235.44;;;12.35;77.29
75886;BME280;64561;44.018;10.144;2024-03-06T00:07:02;101238.88;;;12.34;78.04
75886;BME280;64561;44.018;10.144;2024-03-06T00:09:29;101221.56;;;12.27;77.85
75886;BME280;64561;44.018;10.144;2024-03-06T00:11:57;101228.63;;;12.35;76.89
75886;BME280;64561;44.018;10.144;2024-03-06T00:14:24;101216.56;;;12.33;77.51
75886;BME280;64561;44.018;10.144;2024-03-06T00:16:52;101205.44;;;12.31;78.37
75886;BME280;64561;44.018;10.144;2024-03-06T00:19:19;101220.91;;;12.35;78.91
75886;BME280;64561;44.018;10.144;2024-03-06T00:21:47;101214.06;;;12.34;79.25
75886;BME280;64561;44.018;10.144;2024-03-06T00:24:15;101201.03;;;12.27;79.56
75886;BME280;64561;44.018;10.144;2024-03-06T00:26:44;101224.47;;;12.41;79.88
75886;BME280;64561;44.018;10.144;2024-03-06T00:29:12;101228.69;;;12.39;80.79
75886;BME280;64561;44.018;10.144;2024-03-06T00:31:43;101226.16;;;12.40;82.29
75886;BME280;64561;44.018;10.144;2024-03-06T00:34:11;101227.97;;;12.44;84.06
75886;BME280;64561;44.018;10.144;2024-03-06T00:36:41;101228.88;;;12.48;85.27
75886;BME280;64561;44.018;10.144;2024-03-06T00:39:08;101226.97;;;12.38;85.35
75886;BME280;64561;44.018;10.144;2024-03-06T00:41:35;101217.53;;;12.37;84.84
75886;BME280;64561;44.018;10.144;2024-03-06T00:44:03;101232.16;;;12.41;84.96
75886;BME280;64561;44.018;10.144;2024-03-06T00:46:31;101243.28;;;12.40;85.25
75886;BME280;64561;44.018;10.144;2024-03-06T00:48:58;101251.63;;;12.32;85.57
75886;BME280;64561;44.018;10.144;2024-03-06T00:51:25;101261.03;;;12.30;86.30
75886;BME280;64561;44.018;10.144;2024-03-06T00:54:07;101261.91;;;12.32;86.10
75886;BME280;64561;44.018;10.144;2024-03-06T00:56:38;101271.28;;;12.30;85.87
75886;BME280;64561;44.018;10.144;2024-03-06T00:59:06;101266.88;;;12.25;86.35
75886;BME280;64561;44.018;10.144;2024-03-06T01:01:36;101265.97;;;12.24;85.68
75886;BME280;64561;44.018;10.144;2024-03-06T01:04:03;101269.31;;;12.20;86.07
75886;BME280;64561;44.018;10.144;2024-03-06T01:06:30;101264.88;;;12.13;86.04
75886;BME280;64561;44.018;10.144;2024-03-06T01:08:57;101270.78;;;12.10;85.81
75886;BME280;64561;44.018;10.144;2024-03-06T01:11:25;101267.31;;;12.08;84.30
75886;BME280;64561;44.018;10.144;2024-03-06T01:13:55;101264.72;;;12.07;84.41
75886;BME280;64561;44.018;10.144;2024-03-06T01:16:23;101263.72;;;12.02;83.64
75886;BME280;64561;44.018;10.144;2024-03-06T01:18:50;101276.56;;;12.03;83.83
75886;BME280;64561;44.018;10.144;2024-03-06T01:21:17;101288.53;;;12.03;84.16
75886;BME280;64561;44.018;10.144;2024-03-06T01:23:44;101281.69;;;12.02;84.21
75886;BME280;64561;44.018;10.144;2024-03-06T01:26:11;101282.53;;;12.01;84.04
75886;BME280;64561;44.018;10.144;2024-03-06T01:28:39;101278.19;;;12.00;84.38
75886;BME280;64561;44.018;10.144;2024-03-06T01:31:06;101284.16;;;11.99;84.17
75886;BME280;64561;44.018;10.144;2024-03-06T01:33:34;101278.09;;;11.95;84.17
75886;BME280;64561;44.018;10.144;2024-03-06T01:36:01;101273.00;;;11.97;84.27
75886;BME280;64561;44.018;10.144;2024-03-06T01:38:29;101279.81;;;11.96;84.40
75886;BME280;64561;44.018;10.144;2024-03-06T01:40:56;101272.13;;;11.96;84.32
75886;BME280;64561;44.018;10.144;2024-03-06T01:43:25;101271.34;;;11.99;84.47
75886;BME280;64561;44.018;10.144;2024-03-06T01:45:53;101277.34;;;11.99;84.01
75886;BME280;64561;44.018;10.144;2024-03-06T01:48:27;101276.50;;;12.00;83.72
75886;BME280;64561;44.018;10.144;2024-03-06T01:50:56;101275.69;;;12.01;83.35
75886;BME280;64561;44.018;10.144;2024-03-06T01:53:27;101271.34;;;11.99;83.20
75886;BME280;64561;44.018;10.144;2024-03-06T01:55:56;101270.47;;;11.98;83.24
75886;BME280;64561;44.018;10.144;2024-03-06T01:58:23;101272.25;;;12.01;83.31
75886;BME280;64561;44.018;10.144;2024-03-06T02:00:52;101273.13;;;12.01;83.78
75886;BME280;64561;44.018;10.144;2024-03-06T02:03:21;101265.44;;;12.03;84.44
75886;BME280;64561;44.018;10.144;2024-03-06T02:05:49;101266.28;;;12.02;83.81
75886;BME280;64561;44.018;10.144;2024-03-06T02:08:17;101272.97;;;11.95;83.59
75886;BME280;64561;44.018;10.144;2024-03-06T02:10:45;101264.09;;;11.84;83.42
75886;BME280;64561;44.018;10.144;2024-03-06T02:13:14;101268.63;;;11.93;83.91
75886;BME280;64561;44.018;10.144;2024-03-06T02:15:44;101265.06;;;11.87;83.77
75886;BME280;64561;44.018;10.144;2024-03-06T02:18:12;101269.34;;;11.87;83.71
75886;BME280;64561;44.018;10.144;2024-03-06T02:20:40;101270.94;;;11.83;83.34
75886;BME280;64561;44.018;10.144;2024-03-06T02:23:07;101269.19;;;11.82;82.43
75886;BME280;64561;44.018;10.144;2024-03-06T02:25:35;101258.09;;;11.83;80.86
75886;BME280;64561;44.018;10.144;2024-03-06T02:28:03;101262.41;;;11.84;79.78
75886;BME280;64561;44.018;10.144;2024-03-06T02:30:33;101268.31;;;11.82;80.19
75886;BME280;64561;44.018;10.144;2024-03-06T02:33:04;101271.56;;;11.76;81.53
75886;BME280;64561;44.018;10.144;2024-03-06T02:35:33;101273.16;;;11.71;81.50
75886;BME280;64561;44.018;10.144;2024-03-06T02:38:03;101274.06;;;11.73;81.35
75886;BME280;64561;44.018;10.144;2024-03-06T02:40:34;101277.44;;;11.71;81.46
75886;BME280;64561;44.018;10.144;2024-03-06T02:43:01;101266.97;;;11.63;82.04
75886;BME280;64561;44.018;10.144;2024-03-06T02:45:29;101262.63;;;11.60;83.62
75886;BME280;64561;44.018;10.144;2024-03-06T02:47:56;101273.72;;;11.61;84.39
75886;BME280;64561;44.018;10.144;2024-03-06T02:50:23;101272.75;;;11.56;84.97
75886;BME280;64561;44.018;10.144;2024-03-06T02:52:50;101265.81;;;11.52;85.47
75886;BME280;64561;44.018;10.144;2024-03-06T02:55:22;101268.34;;;11.50;85.70
75886;BME280;64561;44.018;10.144;2024-03-06T02:57:50;101274.25;;;11.48;85.86
75886;BME280;64561;44.018;10.144;2024-03-06T03:00:17;101263.03;;;11.44;85.75
75886;BME280;64561;44.018;10.144;2024-03-06T03:02:44;101269.88;;;11.43;86.03
75886;BME280;64561;44.018;10.144;2024-03-06T03:05:11;101272.44;;;11.43;86.70
75886;BME280;64561;44.018;10.144;2024-03-06T03:07:38;101270.69;;;11.42;86.75
75886;BME280;64561;44.018;10.144;2024-03-06T03:10:06;101263.75;;;11.38;87.08
75886;BME280;64561;44.018;10.144;2024-03-06T03:12:33;101263.75;;;11.38;87.00
75886;BME280;64561;44.018;10.144;2024-03-06T03:15:01;101256.91;;;11.37;86.46
75886;BME280;64561;44.018;10.144;2024-03-06T03:17:30;101255.13;;;11.35;86.84
75886;BME280;64561;44.018;10.144;2024-03-06T03:19:57;101261.03;;;11.34;86.73
75886;BME280;64561;44.018;10.144;2024-03-06T03:22:24;101254.19;;;11.33;86.57
75886;BME280;64561;44.018;10.144;2024-03-06T03:24:51;101257.50;;;11.29;87.03
75886;BME280;64561;44.018;10.144;2024-03-06T03:27:18;101256.53;;;11.25;87.25
75886;BME280;64561;44.018;10.144;2024-03-06T03:29:46;101259.09;;;11.25;87.15
75886;BME280;64561;44.018;10.144;2024-03-06T03:32:13;101255.63;;;11.23;87.16
75886;BME280;64561;44.018;10.144;2024-03-06T03:34:40;101254.78;;;11.24;87.06
75886;BME280;64561;44.018;10.144;2024-03-06T03:37:07;101265.03;;;11.23;86.84
75886;BME280;64561;44.018;10.144;2024-03-06T03:39:35;101264.97;;;11.21;86.93
75886;BME280;64561;44.018;10.144;2024-03-06T03:42:02;101263.22;;;11.20;86.94
75886;BME280;64561;44.018;10.144;2024-03-06T03:44:30;101265.78;;;11.20;86.59
75886;BME280;64561;44.018;10.144;2024-03-06T03:46:57;101262.22;;;11.15;86.38
75886;BME280;64561;44.018;10.144;2024-03-06T03:49:24;101257.19;;;11.18;86.34
75886;BME280;64561;44.018;10.144;2024-03-06T03:51:51;101261.47;;;11.19;85.94
75886;BME280;64561;44.018;10.144;2024-03-06T03:54:18;101249.50;;;11.18;85.68
75886;BME280;64561;44.018;10.144;2024-03-06T03:56:46;101249.66;;;11.23;85.37
75886;BME280;64561;44.018;10.144;2024-03-06T03:59:13;101252.06;;;11.18;86.57
75886;BME280;64561;44.018;10.144;2024-03-06T04:01:40;101258.81;;;11.14;87.99
75886;BME280;64561;44.018;10.144;2024-03-06T04:04:07;101251.88;;;11.10;89.04
75886;BME280;64561;44.018;10.144;2024-03-06T04:06:35;101253.50;;;11.08;89.31
75886;BME280;64561;44.018;10.144;2024-03-06T04:09:02;101251.72;;;11.06;89.95
75886;BME280;64561;44.018;10.144;2024-03-06T04:11:31;101256.09;;;11.10;90.13
75886;BME280;64561;44.018;10.144;2024-03-06T04:14:04;101256.81;;;11.04;89.90
75886;BME280;64561;44.018;10.144;2024-03-06T04:16:34;101260.31;;;11.08;89.77
75886;BME280;64561;44.018;10.144;2024-03-06T04:19:01;101250.00;;;11.05;90.15
75886;BME280;64561;44.018;10.144;2024-03-06T04:21:28;101257.69;;;11.05;89.92
75886;BME280;64561;44.018;10.144;2024-03-06T04:23:55;101248.22;;;11.02;89.87
75886;BME280;64561;44.018;10.144;2024-03-06T04:26:23;101253.34;;;11.04;89.40
75886;BME280;64561;44.018;10.144;2024-03-06T04:28:50;101260.25;;;11.06;88.78
75886;BME280;64561;44.018;10.144;2024-03-06T04:31:17;101263.59;;;11.04;89.11
75886;BME280;64561;44.018;10.144;2024-03-06T04:33:44;101262.72;;;11.02;89.36
75886;BME280;64561;44.018;10.144;2024-03-06T04:36:12;101257.63;;;11.03;89.19
75886;BME280;64561;44.018;10.144;2024-03-06T04:38:39;101259.31;;;11.03;89.49
75886;BME280;64561;44.018;10.144;2024-03-06T04:41:06;101265.28;;;11.03;89.57
75886;BME280;64561;44.018;10.144;2024-03-06T04:43:34;101262.63;;;10.98;89.44
75886;BME280;64561;44.018;10.144;2024-03-06T04:46:02;101276.19;;;10.96;89.91
75886;BME280;64561;44.018;10.144;2024-03-06T04:48:29;101279.44;;;10.90;89.90
75886;BME280;64561;44.018;10.144;2024-03-06T04:50:57;101289.53;;;10.86;90.20
75886;BME280;64561;44.018;10.144;2024-03-06T04:53:24;101284.19;;;10.78;89.68
75886;BME280;64561;44.018;10.144;2024-03-06T04:55:51;101284.94;;;10.74;90.49
75886;BME280;64561;44.018;10.144;2024-03-06T04:58:19;101289.91;;;10.69;90.98
75886;BME280;64561;44.018;10.144;2024-03-06T05:00:47;101289.91;;;10.69;91.26
75886;BME280;64561;44.018;10.144;2024-03-06T05:03:14;101290.75;;;10.70;92.11
75886;BME280;64561;44.018;10.144;2024-03-06T05:05:59;101288.25;;;10.71;92.66
75886;BME280;64561;44.018;10.144;2024-03-06T05:08:44;101295.00;;;10.69;93.26
75886;BME280;64561;44.018;10.144;2024-03-06T05:11:28;101298.50;;;10.71;93.25
75886;BME280;64561;44.018;10.144;2024-03-06T05:14:14;101291.72;;;10.73;92.98
75886;BME280;64561;44.018;10.144;2024-03-06T05:16:58;101290.91;;;10.74;92.58
75886;BME280;64561;44.018;10.144;2024-03-06T05:19:43;101283.28;;;10.76;92.21
75886;BME280;64561;44.018;10.144;2024-03-06T05:22:30;101290.94;;;10.76;91.65
75886;BME280;64561;44.018;10.144;2024-03-06T05:25:15;101289.31;;;10.78;91.39
75886;BME280;64561;44.018;10.144;2024-03-06T05:27:59;101283.31;;;10.78;90.48
75886;BME280;64561;44.018;10.144;2024-03-06T05:30:43;101291.97;;;10.81;90.38
75886;BME280;64561;44.018;10.144;2024-03-06T05:33:35;101295.44;;;10.83;90.69
75886;BME280;64561;44.018;10.144;2024-03-06T05:36:20;101297.28;;;10.87;90.59
75886;BME280;64561;44.018;10.144;2024-03-06T05:39:04;101307.34;;;10.83;90.79
75886;BME280;64561;44.018;10.144;2024-03-06T05:41:51;101306.50;;;10.82;91.46
75886;BME280;64561;44.018;10.144;2024-03-06T05:44:37;101308.16;;;10.80;91.58
75886;BME280;64561;44.018;10.144;2024-03-06T05:47:22;101310.66;;;10.79;91.92
75886;BME280;64561;44.018;10.144;2024-03-06T05:50:06;101308.94;;;10.78;91.27
75886;BME280;64561;44.018;10.144;2024-03-06T05:52:51;101303.47;;;10.67;90.46
75886;BME280;64561;44.018;10.144;2024-03-06T05:55:35;101300.72;;;10.61;91.07
75886;BME280;64561;44.018;10.144;2024-03-06T05:58:20;101304.22;;;10.64;92.07
75886;BME280;64561;44.018;10.144;2024-03-06T06:00:48;101300.81;;;10.64;92.28
75886;BME280;64561;44.018;10.144;2024-03-06T06:03:16;101304.28;;;10.66;92.55
75886;BME280;64561;44.018;10.144;2024-03-06T06:05:43;101315.34;;;10.65;92.07
75886;BME280;64561;44.018;10.144;2024-03-06T06:08:10;101318.63;;;10.61;92.00
75886;BME280;64561;44.018;10.144;2024-03-06T06:10:37;101316.06;;;10.61;91.76
75886;BME280;64561;44.018;10.144;2024-03-06T06:13:04;101321.19;;;10.61;91.39
75886;BME280;64561;44.018;10.144;2024-03-06T06:15:32;101317.13;;;10.67;91.24
75886;BME280;64561;44.018;10.144;2024-03-06T06:17:59;101308.44;;;10.62;91.70
75886;BME280;64561;44.018;10.144;2024-03-06T06:20:27;101302.22;;;10.54;91.27
75886;BME280;64561;44.018;10.144;2024-03-06T06:22:54;101309.78;;;10.51;92.19
75886;BME280;64561;44.018;10.144;2024-03-06T06:25:22;101330.41;;;10.56;91.76
75886;BME280;64561;44.018;10.144;2024-03-06T06:27:50;101323.66;;;10.58;92.47
75886;BME280;64561;44.018;10.144;2024-03-06T06:30:17;101329.59;;;10.57;92.99
75886;BME280;64561;44.018;10.144;2024-03-06T06:32:44;101340.72;;;10.59;93.47
75886;BME280;64561;44.018;10.144;2024-03-06T06:35:12;101345.03;;;10.60;93.86
75886;BME280;64561;44.018;10.144;2024-03-06T06:37:41;101347.59;;;10.60;93.81
75886;BME280;64561;44.018;10.144;2024-03-06T06:40:09;101362.13;;;10.61;93.71
75886;BME280;64561;44.018;10.144;2024-03-06T06:42:37;101350.25;;;10.63;93.85
75886;BME280;64561;44.018;10.144;2024-03-06T06:45:05;101339.84;;;10.57;94.41
75886;BME280;64561;44.018;10.144;2024-03-06T06:47:36;101346.84;;;10.62;94.70
75886;BME280;64561;44.018;10.144;2024-03-06T06:50:04;101345.19;;;10.64;94.40
75886;BME280;64561;44.018;10.144;2024-03-06T06:52:33;101334.81;;;10.60;93.30
75886;BME280;64561;44.018;10.144;2024-03-06T06:55:01;101344.41;;;10.67;92.38
75886;BME280;64561;44.018;10.144;2024-03-06T06:57:30;101333.41;;;10.69;91.62
75886;BME280;64561;44.018;10.144;2024-03-06T06:59:58;101335.28;;;10.75;91.23
75886;BME280;64561;44.018;10.144;2024-03-06T07:02:25;101332.75;;;10.76;90.50
75886;BME280;64561;44.018;10.144;2024-03-06T07:04:52;101331.13;;;10.79;89.63
75886;BME280;64561;44.018;10.144;2024-03-06T07:07:20;101330.31;;;10.80;89.56
75886;BME280;64561;44.018;10.144;2024-03-06T07:09:48;101338.03;;;10.81;89.66
75886;BME280;64561;44.018;10.144;2024-03-06T07:12:15;101341.56;;;10.85;89.88
75886;BME280;64561;44.018;10.144;2024-03-06T07:14:43;101344.28;;;10.89;89.64
75886;BME280;64561;44.018;10.144;2024-03-06T07:17:10;101341.84;;;10.94;89.96
75886;BME280;64561;44.018;10.144;2024-03-06T07:19:37;101345.44;;;11.01;89.90
75886;BME280;64561;44.018;10.144;2024-03-06T07:22:04;101335.09;;;10.96;89.88
75886;BME280;64561;44.018;10.144;2024-03-06T07:24:31;101348.09;;;11.04;89.58
75886;BME280;64561;44.018;10.144;2024-03-06T07:27:03;101349.88;;;11.05;89.56
75886;BME280;64561;44.018;10.144;2024-03-06T07:29:30;101363.03;;;11.17;86.49
75886;BME280;64561;44.018;10.144;2024-03-06T07:31:57;101370.53;;;11.11;84.61
75886;BME280;64561;44.018;10.144;2024-03-06T07:34:24;101382.97;;;10.98;83.84
75886;BME280;64561;44.018;10.144;2024-03-06T07:36:52;101374.75;;;10.82;85.30
75886;BME280;64561;44.018;10.144;2024-03-06T07:39:19;101389.88;;;10.74;85.90
75886;BME280;64561;44.018;10.144;2024-03-06T07:41:47;101379.84;;;10.55;86.01
75886;BME280;64561;44.018;10.144;2024-03-06T07:44:14;101397.84;;;10.58;87.53
75886;BME280;64561;44.018;10.144;2024-03-06T07:46:41;101408.09;;;10.58;88.67
75886;BME280;64561;44.018;10.144;2024-03-06T07:49:09;101412.66;;;10.66;90.72
75886;BME280;64561;44.018;10.144;2024-03-06T07:51:36;101423.00;;;10.71;92.02
75886;BME280;64561;44.018;10.144;2024-03-06T07:54:03;101437.50;;;10.70;92.34
75886;BME280;64561;44.018;10.144;2024-03-06T07:56:33;101436.41;;;10.62;92.58
75886;BME280;64561;44.018;10.144;2024-03-06T07:59:01;101429.28;;;10.53;91.90
75886;BME280;64561;44.018;10.144;2024-03-06T08:01:28;101431.75;;;10.50;93.04
75886;BME280;64561;44.018;10.144;2024-03-06T08:03:55;101435.66;;;10.41;92.03
75886;BME280;64561;44.018;10.144;2024-03-06T08:06:23;101433.38;;;10.24;94.77
75886;BME280;64561;44.018;10.144;2024-03-06T08:08:50;101439.56;;;10.29;95.27
75886;BME280;64561;44.018;10.144;2024-03-06T08:11:19;101428.50;;;10.30;96.86
75886;BME280;64561;44.018;10.144;2024-03-06T08:13:48;101432.75;;;10.30;94.69
75886;BME280;64561;44.018;10.144;2024-03-06T08:16:16;101430.59;;;10.42;95.94
75886;BME280;64561;44.018;10.144;2024-03-06T08:18:44;101431.22;;;10.35;95.40
75886;BME280;64561;44.018;10.144;2024-03-06T08:21:11;101421.22;;;10.43;94.00
75886;BME280;64561;44.018;10.144;2024-03-06T08:23:38;101421.00;;;10.35;92.96
75886;BME280;64561;44.018;10.144;2024-03-06T08:26:05;101417.28;;;10.27;91.58
75886;BME280;64561;44.018;10.144;2024-03-06T08:28:33;101413.56;;;10.43;92.71
75886;BME280;64561;44.018;10.144;2024-03-06T08:31:00;101409.78;;;10.57;90.14
75886;BME280;64561;44.018;10.144;2024-03-06T08:33:27;101403.13;;;10.62;88.34
75886;BME280;64561;44.018;10.144;2024-03-06T08:35:55;101396.31;;;10.63;92.68
75886;BME280;64561;44.018;10.144;2024-03-06T08:38:22;101402.78;;;10.77;86.55
75886;BME280;64561;44.018;10.144;2024-03-06T08:40:50;101396.16;;;10.84;86.52
75886;BME280;64561;44.018;10.144;2024-03-06T08:43:17;101400.59;;;10.89;86.59
75886;BME280;64561;44.018;10.144;2024-03-06T08:45:46;101403.28;;;10.94;86.84
75886;BME280;64561;44.018;10.144;2024-03-06T08:48:13;101399.50;;;11.10;86.91
75886;BME280;64561;44.018;10.144;2024-03-06T08:50:40;101406.59;;;11.17;86.99
75886;BME280;64561;44.018;10.144;2024-03-06T08:53:07;101396.78;;;11.32;89.09
75886;BME280;64561;44.018;10.144;2024-03-06T08:55:36;101398.72;;;11.39;88.72
75886;BME280;64561;44.018;10.144;2024-03-06T08:58:03;101404.06;;;11.47;86.21
75886;BME280;64561;44.018;10.144;2024-03-06T09:00:31;101404.09;;;11.49;84.81
75886;BME280;64561;44.018;10.144;2024-03-06T09:02:58;101398.34;;;11.56;81.62
75886;BME280;64561;44.018;10.144;2024-03-06T09:05:26;101402.72;;;11.60;79.74
75886;BME280;64561;44.018;10.144;2024-03-06T09:07:53;101401.69;;;11.53;80.51
75886;BME280;64561;44.018;10.144;2024-03-06T09:10:20;101405.97;;;11.54;79.92
75886;BME280;64561;44.018;10.144;2024-03-06T09:12:47;101409.38;;;11.53;80.04
75886;BME280;64561;44.018;10.144;2024-03-06T09:15:15;101396.50;;;11.52;77.49
75886;BME280;64561;44.018;10.144;2024-03-06T09:17:43;101405.78;;;11.47;76.55
75886;BME280;64561;44.018;10.144;2024-03-06T09:20:12;101413.28;;;11.40;75.70
75886;BME280;64561;44.018;10.144;2024-03-06T09:22:41;101403.03;;;11.40;75.95
75886;BME280;64561;44.018;10.144;2024-03-06T09:25:10;101412.44;;;11.41;76.43
75886;BME280;64561;44.018;10.144;2024-03-06T09:27:39;101404.78;;;11.43;77.47
75886;BME280;64561;44.018;10.144;2024-03-06T09:30:07;101408.34;;;11.47;79.13
75886;BME280;64561;44.018;10.144;2024-03-06T09:32:37;101405.78;;;11.47;79.61
75886;BME280;64561;44.018;10.144;2024-03-06T09:35:06;101400.72;;;11.50;77.54
75886;BME280;64561;44.018;10.144;2024-03-06T09:37:33;101401.91;;;11.61;76.37
75886;BME280;64561;44.018;10.144;2024-03-06T09:40:00;101403.69;;;11.63;77.37
75886;BME280;64561;44.018;10.144;2024-03-06T09:42:29;101398.97;;;11.77;76.97
75886;BME280;64561;44.018;10.144;2024-03-06T09:44:56;101391.66;;;11.91;73.64
75886;BME280;64561;44.018;10.144;2024-03-06T09:47:24;101399.97;;;12.12;76.76
75886;BME280;64561;44.018;10.144;2024-03-06T09:49:55;101401.31;;;12.31;72.47
75886;BME280;64561;44.018;10.144;2024-03-06T09:52:24;101399.75;;;12.37;67.04
75886;BME280;64561;44.018;10.144;2024-03-06T09:54:55;101396.66;;;12.50;68.70
75886;BME280;64561;44.018;10.144;2024-03-06T09:57:23;101402.84;;;12.58;67.08
75886;BME280;64561;44.018;10.144;2024-03-06T09:59:50;101398.16;;;12.76;69.90
75886;BME280;64561;44.018;10.144;2024-03-06T10:02:46;101398.41;;;12.87;71.06
75886;BME280;64561;44.018;10.144;2024-03-06T10:05:23;101396.56;;;12.81;67.61
75886;BME280;64561;44.018;10.144;2024-03-06T10:07:51;101390.69;;;12.87;64.48
75886;BME280;64561;44.018;10.144;2024-03-06T10:10:20;101400.97;;;12.87;64.92
75886;BME280;64561;44.018;10.144;2024-03-06T10:12:50;101394.09;;;12.85;63.81
75886;BME280;64561;44.018;10.144;2024-03-06T10:15:19;101400.38;;;12.97;62.98
75886;BME280;64561;44.018;10.144;2024-03-06T10:17:46;101390.91;;;12.95;64.29
75886;BME280;64561;44.018;10.144;2024-03-06T10:20:22;101397.97;;;13.05;62.41
75886;BME280;64561;44.018;10.144;2024-03-06T10:22:50;101393.53;;;12.98;61.38
75886;BME280;64561;44.018;10.144;2024-03-06T10:25:24;101397.72;;;12.94;61.19
75886;BME280;64561;44.018;10.144;2024-03-06T10:28:10;101396.97;;;12.98;60.73
75886;BME280;64561;44.018;10.144;2024-03-06T10:30:39;101385.91;;;13.01;63.03
75886;BME280;64561;44.018;10.144;2024-03-06T10:33:11;101394.09;;;13.22;63.40
75886;BME280;64561;44.018;10.144;2024-03-06T10:35:43;101392.06;;;13.45;64.33
75886;BME280;64561;44.018;10.144;2024-03-06T10:38:12;101389.63;;;13.53;63.12
75886;BME280;64561;44.018;10.144;2024-03-06T10:40:43;101387.28;;;13.64;61.36
75886;BME280;64561;44.018;10.144;2024-03-06T10:43:11;101394.88;;;13.58;62.39
75886;BME280;64561;44.018;10.144;2024-03-06T10:46:01;101397.41;;;13.56;60.60
75886;BME280;64561;44.018;10.144;2024-03-06T10:48:33;101399.25;;;13.62;62.74
75886;BME280;64561;44.018;10.144;2024-03-06T10:51:02;101405.34;;;13.67;61.20
75886;BME280;64561;44.018;10.144;2024-03-06T10:53:31;101409.81;;;13.76;62.48
75886;BME280;64561;44.018;10.144;2024-03-06T10:56:00;101407.44;;;13.85;65.85
75886;BME280;64561;44.018;10.144;2024-03-06T10:58:29;101413.41;;;13.84;65.15
75886;BME280;64561;44.018;10.144;2024-03-06T11:00:57;101410.56;;;13.70;64.18
75886;BME280;64561;44.018;10.144;2024-03-06T11:03:25;101401.06;;;13.67;64.60
75886;BME280;64561;44.018;10.144;2024-03-06T11:05:54;101408.78;;;13.67;61.92
75886;BME280;64561;44.018;10.144;2024-03-06T11:08:21;101407.75;;;13.59;63.62
75886;BME280;64561;44.018;10.144;2024-03-06T11:10:49;101399.06;;;13.53;62.43
75886;BME280;64561;44.018;10.144;2024-03-06T11:13:25;101407.09;;;13.68;60.16
75886;BME280;64561;44.018;10.144;2024-03-06T11:15:57;101402.84;;;13.70;59.68
75886;BME280;64561;44.018;10.144;2024-03-06T11:23:29;101385.81;;;13.77;59.58
75886;BME280;64561;44.018;10.144;2024-03-06T11:28:35;101400.69;;;13.91;56.47
75886;BME280;64561;44.018;10.144;2024-03-06T11:31:11;101404.81;;;13.83;57.45
75886;BME280;64561;44.018;10.144;2024-03-06T11:33:46;101391.56;;;13.63;57.87
75886;BME280;64561;44.018;10.144;2024-03-06T11:38:57;101405.13;;;13.56;59.69
75886;BME280;64561;44.018;10.144;2024-03-06T11:41:26;101397.09;;;13.41;59.08
75886;BME280;64561;44.018;10.144;2024-03-06T11:43:55;101409.06;;;13.39;58.30
75886;BME280;64561;44.018;10.144;2024-03-06T11:46:40;101412.00;;;13.19;59.45
75886;BME280;64561;44.018;10.144;2024-03-06T11:49:27;101415.28;;;13.12;58.62
75886;BME280;64561;44.018;10.144;2024-03-06T11:51:57;101413.38;;;13.05;58.35
75886;BME280;64561;44.018;10.144;2024-03-06T11:54:25;101403.63;;;12.90;58.60
75886;BME280;64561;44.018;10.144;2024-03-06T11:56:58;101417.28;;;12.88;58.04
75886;BME280;64561;44.018;10.144;2024-03-06T11:59:27;101406.19;;;12.90;56.17
75886;BME280;64561;44.018;10.144;2024-03-06T12:01:58;101394.22;;;12.91;57.84
75886;BME280;64561;44.018;10.144;2024-03-06T12:04:25;101403.63;;;12.90;56.45
75886;BME280;64561;44.018;10.144;2024-03-06T12:06:52;101404.38;;;12.85;55.91
75886;BME280;64561;44.018;10.144;2024-03-06T12:09:23;101394.72;;;12.76;57.04
75886;BME280;64561;44.018;10.144;2024-03-06T12:11:50;101401.03;;;12.90;55.41
75886;BME280;64561;44.018;10.144;2024-03-06T12:14:19;101394.16;;;12.88;55.13
75886;BME280;64561;44.018;10.144;2024-03-06T12:16:57;101395.97;;;12.92;55.84
75886;BME280;64561;44.018;10.144;2024-03-06T12:19:31;101397.69;;;12.93;54.61
75886;BME280;64561;44.018;10.144;2024-03-06T12:22:02;101392.41;;;12.87;53.94
75886;BME280;64561;44.018;10.144;2024-03-06T12:24:32;101394.31;;;12.94;54.37
75886;BME280;64561;44.018;10.144;2024-03-06T12:27:04;101404.72;;;13.00;55.33
75886;BME280;64561;44.018;10.144;2024-03-06T12:29:33;101398.88;;;13.07;56.79
75886;BME280;64561;44.018;10.144;2024-03-06T12:32:04;101392.16;;;13.12;53.07
75886;BME280;64561;44.018;10.144;2024-03-06T12:34:31;101385.38;;;13.16;53.36
75886;BME280;64561;44.018;10.144;2024-03-06T12:37:11;101387.16;;;13.20;53.38
75886;BME280;64561;44.018;10.144;2024-03-06T12:39:39;101403.63;;;13.26;52.83
75886;BME280;64561;44.018;10.144;2024-03-06T12:42:10;101385.75;;;13.33;53.05
75886;BME280;64561;44.018;10.144;2024-03-06T12:44:40;101393.63;;;13.39;53.78
75886;BME280;64561;44.018;10.144;2024-03-06T12:47:08;101385.28;;;13.50;52.11
75886;BME280;64561;44.018;10.144;2024-03-06T12:49:35;101384.78;;;13.68;54.21
75886;BME280;64561;44.018;10.144;2024-03-06T12:52:02;101385.16;;;13.87;55.52
75886;BME280;64561;44.018;10.144;2024-03-06T12:54:32;101382.59;;;13.87;52.76
75886;BME280;64561;44.018;10.144;2024-03-06T12:56:59;101380.09;;;13.90;53.46
75886;BME280;64561;44.018;10.144;2024-03-06T12:59:26;101388.78;;;13.97;54.09
75886;BME280;64561;44.018;10.144;2024-03-06T13:01:53;101382.75;;;13.94;53.96
75886;BME280;64561;44.018;10.144;2024-03-06T13:04:21;101375.78;;;13.89;53.19